createdAt,value
2023-12-05T00:03:55.039Z,6.63
2023-12-05T00:08:59.786Z,7.10
2023-12-05T00:14:02.411Z,7.10
2023-12-05T00:19:05.066Z,6.73
2023-12-05T00:24:09.288Z,7.17
2023-12-05T00:29:11.976Z,6.60
2023-12-05T00:34:14.622Z,7.70
2023-12-05T00:39:18.767Z,8.33
2023-12-05T00:44:21.481Z,7.37
2023-12-05T00:49:24.189Z,7.00
2023-12-05T00:54:28.686Z,7.27
2023-12-05T00:59:31.324Z,6.80
2023-12-05T01:04:34.503Z,6.73
2023-12-05T01:09:38.666Z,7.20
2023-12-05T01:14:41.431Z,7.03
2023-12-05T01:19:44.015Z,6.50
2023-12-05T01:24:54.857Z,7.60
2023-12-05T01:29:57.473Z,7.63
2023-12-05T01:35:00.209Z,7.77
2023-12-05T01:40:05.529Z,7.80
2023-12-05T01:45:10.757Z,7.70
2023-12-05T01:50:16.322Z,6.80
2023-12-05T01:55:22.397Z,8.27
2023-12-05T02:00:26.979Z,7.30
2023-12-05T02:05:30.418Z,7.70
2023-12-05T02:10:35.020Z,7.73
2023-12-05T02:15:38.449Z,7.90
2023-12-05T02:20:48.649Z,7.27
2023-12-05T02:26:08.921Z,7.50
2023-12-05T02:31:13.279Z,8.27
2023-12-05T02:36:22.800Z,7.47
2023-12-05T02:41:30.607Z,6.80
2023-12-05T02:46:35.526Z,8.03
2023-12-05T02:51:38.259Z,7.50
2023-12-05T02:56:41.002Z,7.80
2023-12-05T03:01:45.193Z,7.27
2023-12-05T03:06:47.926Z,7.83
2023-12-05T03:11:50.602Z,7.40
2023-12-05T03:16:54.725Z,8.30
2023-12-05T03:21:58.155Z,7.13
2023-12-05T03:27:00.867Z,7.80
2023-12-05T03:32:05.412Z,8.37
2023-12-05T03:37:08.554Z,8.63
2023-12-05T03:42:11.298Z,9.13
2023-12-05T03:47:15.416Z,8.27
2023-12-05T03:52:18.151Z,8.50
2023-12-05T03:57:20.879Z,8.17
2023-12-05T04:02:26.150Z,7.00
2023-12-05T04:07:28.867Z,7.80
2023-12-05T04:12:33.696Z,8.03
2023-12-05T04:17:37.819Z,7.30
2023-12-05T04:22:41.194Z,7.20
2023-12-05T04:27:44.861Z,8.70
2023-12-05T04:32:49.236Z,7.80
2023-12-05T04:37:52.065Z,6.53
2023-12-05T04:42:55.060Z,7.57
2023-12-05T04:48:00.394Z,6.80
2023-12-05T04:53:04.545Z,6.70
2023-12-05T04:58:07.356Z,7.10
2023-12-05T05:03:12.829Z,9.10
2023-12-05T05:08:15.886Z,9.17
2023-12-05T05:13:19.783Z,10.30
2023-12-05T05:18:26.665Z,9.67
2023-12-05T05:23:29.574Z,8.73
2023-12-05T05:28:32.595Z,40.57
2023-12-05T05:33:37.348Z,9.50
2023-12-05T05:38:40.349Z,9.23
2023-12-05T05:43:43.326Z,9.00
2023-12-05T05:48:47.678Z,9.00
2023-12-05T05:53:50.598Z,8.83
2023-12-05T05:58:53.381Z,7.80
2023-12-05T06:03:58.774Z,18.17
2023-12-05T06:09:05.331Z,8.87
2023-12-05T06:14:09.960Z,8.50
2023-12-05T06:19:13.989Z,9.77
2023-12-05T06:24:16.965Z,14.73
2023-12-05T06:29:19.648Z,17.20
2023-12-05T06:34:25.231Z,15.93
2023-12-05T06:39:28.573Z,14.90
2023-12-05T06:44:33.333Z,12.50
2023-12-05T06:49:39.693Z,12.20
2023-12-05T06:54:51.209Z,15.50
2023-12-05T06:59:54.370Z,17.30
2023-12-05T07:04:59.357Z,17.03
2023-12-05T07:10:03.265Z,17.20
2023-12-05T07:15:16.094Z,15.07
2023-12-05T07:20:23.167Z,15.63
2023-12-05T07:25:25.926Z,13.40
2023-12-05T07:30:28.908Z,12.97
2023-12-05T07:35:33.480Z,12.30
2023-12-05T07:40:36.298Z,13.90
2023-12-05T07:45:39.015Z,13.90
2023-12-05T07:50:44.948Z,15.17
2023-12-05T07:55:51.279Z,17.20
2023-12-05T08:00:53.995Z,15.67
2023-12-05T08:05:58.034Z,15.90
2023-12-05T08:11:00.861Z,13.53
2023-12-05T08:16:04.196Z,13.10
2023-12-05T08:21:09.061Z,13.50
2023-12-05T08:26:12.278Z,14.30
2023-12-05T08:31:15.278Z,13.90
2023-12-05T08:36:20.450Z,13.37
2023-12-05T08:41:23.298Z,12.07
2023-12-05T08:46:26.036Z,11.03
2023-12-05T08:51:32.876Z,8.90
2023-12-05T08:56:35.683Z,7.00
2023-12-05T09:01:40.291Z,6.97
2023-12-05T09:06:44.905Z,6.03
2023-12-05T09:11:48.310Z,6.53
2023-12-05T09:16:51.089Z,6.53
2023-12-05T09:36:32.170Z,6.37
2023-12-05T09:41:43.214Z,5.93
2023-12-05T09:46:50.074Z,5.13
2023-12-05T09:51:54.695Z,6.30
2023-12-05T10:02:20.850Z,5.83
2023-12-05T10:07:28.122Z,4.53
2023-12-05T10:12:30.969Z,4.80
2023-12-05T10:17:35.558Z,4.57
2023-12-05T10:22:41.770Z,4.80
2023-12-05T10:27:44.614Z,4.30
2023-12-05T10:32:47.618Z,3.97
2023-12-05T10:37:54.202Z,3.80
2023-12-05T10:42:58.808Z,3.73
2023-12-05T10:48:01.705Z,3.80
2023-12-05T10:53:06.342Z,3.60
2023-12-05T11:03:27.852Z,3.30
2023-12-05T11:08:34.195Z,3.70
2023-12-05T11:13:44.782Z,3.50
2023-12-05T11:18:52.151Z,3.40
2023-12-05T11:24:13.581Z,3.90
2023-12-05T11:29:29.639Z,3.50
2023-12-05T11:35:06.961Z,3.37
2023-12-05T11:40:12.043Z,3.30
2023-12-05T11:45:26.132Z,2.87
2023-12-05T11:56:01.238Z,3.20
2023-12-05T12:01:08.061Z,4.67
2023-12-05T12:06:12.533Z,7.87
2023-12-05T12:11:17.799Z,7.70
2023-12-05T12:16:27.161Z,8.07
2023-12-05T12:21:31.783Z,9.00
2023-12-05T12:26:55.286Z,8.33
2023-12-05T12:46:37.067Z,9.93
2023-12-05T12:51:42.138Z,9.67
2023-12-05T12:56:45.483Z,9.27
2023-12-05T13:01:52.495Z,9.57
2023-12-05T13:06:55.955Z,9.30
2023-12-05T13:11:59.097Z,9.30
2023-12-05T13:17:08.668Z,10.00
2023-12-05T13:22:11.529Z,10.90
2023-12-05T13:27:14.829Z,11.23
2023-12-05T13:32:18.892Z,11.53
2023-12-05T13:37:21.584Z,12.40
2023-12-05T13:42:24.522Z,13.37
2023-12-05T13:47:53.573Z,14.37
2023-12-05T13:52:59.953Z,14.40
2023-12-05T13:58:03.990Z,14.73
2023-12-05T14:03:12.031Z,15.97
2023-12-05T14:08:17.064Z,14.40
2023-12-05T14:13:20.154Z,14.60
2023-12-05T14:18:37.613Z,14.77
2023-12-05T14:23:46.803Z,16.00
2023-12-05T14:28:51.893Z,13.97
2023-12-05T14:33:56.171Z,11.83
2023-12-05T14:44:28.608Z,13.47
2023-12-05T14:49:39.118Z,12.63
2023-12-05T14:54:41.953Z,14.17
2023-12-05T14:59:48.674Z,14.63
2023-12-05T15:04:59.999Z,14.50
2023-12-05T15:10:10.196Z,15.07
2023-12-05T15:29:05.159Z,15.90
2023-12-05T15:34:08.203Z,14.40
2023-12-05T15:39:11.464Z,13.97
2023-12-05T15:44:28.932Z,23.97
2023-12-05T15:49:35.242Z,17.03
2023-12-05T15:54:42.063Z,13.23
2023-12-05T15:59:52.922Z,13.23
2023-12-05T16:05:02.191Z,13.17
2023-12-05T16:10:18.887Z,12.43
2023-12-05T16:15:28.443Z,12.27
2023-12-05T16:20:31.223Z,13.33
2023-12-05T16:25:34.182Z,14.53
2023-12-05T16:30:47.112Z,15.60
2023-12-05T16:36:06.357Z,17.00
2023-12-05T16:41:31.386Z,18.27
2023-12-05T16:46:37.293Z,18.73
2023-12-05T16:51:40.201Z,21.13
2023-12-05T16:56:44.681Z,19.90
2023-12-05T17:01:49.209Z,21.90
2023-12-05T17:07:03.850Z,24.07
2023-12-05T17:12:12.939Z,24.20
2023-12-05T17:17:20.803Z,26.23
2023-12-05T17:22:30.762Z,26.17
2023-12-05T17:27:33.714Z,24.40
2023-12-05T17:32:47.111Z,25.90
2023-12-05T17:37:50.380Z,24.90
2023-12-05T17:42:53.818Z,23.40
2023-12-05T17:47:58.534Z,22.27
2023-12-05T17:53:01.409Z,21.77
2023-12-05T18:17:11.203Z,22.17
2023-12-05T18:22:15.838Z,22.90
2023-12-05T18:27:18.758Z,24.70
2023-12-05T18:32:22.153Z,23.87
2023-12-05T18:37:26.559Z,23.50
2023-12-05T18:42:29.476Z,24.80
2023-12-05T18:47:34.052Z,24.63
2023-12-05T18:52:38.704Z,24.50
2023-12-05T18:57:43.297Z,25.90
2023-12-05T19:02:46.344Z,29.40
2023-12-05T19:07:50.627Z,22.70
2023-12-05T19:12:53.286Z,24.90
2023-12-05T19:17:55.925Z,26.83
2023-12-05T19:23:00.117Z,24.80
2023-12-05T19:28:03.138Z,25.87
2023-12-05T19:33:05.952Z,24.03
2023-12-05T19:38:10.034Z,23.07
2023-12-05T19:43:13.360Z,23.83
2023-12-05T19:48:16.007Z,23.73
2023-12-05T19:53:21.965Z,26.33
2023-12-05T19:58:25.160Z,21.37
2023-12-05T20:03:27.824Z,22.83
2023-12-05T20:08:31.989Z,22.90
2023-12-05T20:13:34.727Z,29.02
2023-12-05T20:18:37.482Z,24.17
2023-12-05T20:23:41.551Z,25.80
2023-12-05T20:28:44.254Z,23.83
2023-12-05T20:33:47.450Z,22.97
2023-12-05T20:38:51.470Z,24.57
2023-12-05T20:43:54.863Z,25.50
2023-12-05T20:48:57.809Z,26.37
2023-12-05T20:54:01.871Z,26.43
2023-12-05T20:59:04.630Z,24.67
2023-12-05T21:04:08.134Z,24.27
2023-12-05T21:09:13.732Z,24.80
2023-12-05T21:14:16.912Z,22.37
2023-12-05T21:19:19.579Z,22.43
2023-12-05T21:24:23.517Z,24.10
2023-12-05T21:29:26.091Z,23.63
2023-12-05T21:34:32.528Z,25.10
2023-12-05T21:39:36.603Z,24.10
2023-12-05T21:44:40.666Z,21.80
2023-12-05T21:49:43.317Z,19.90
2023-12-05T21:54:47.428Z,20.40
2023-12-05T21:59:50.298Z,20.27
2023-12-05T22:04:53.111Z,19.00
2023-12-05T22:09:57.563Z,18.07
2023-12-05T22:15:00.388Z,18.50
2023-12-05T22:20:03.175Z,19.30
2023-12-05T22:25:07.959Z,18.70
2023-12-05T22:30:12.054Z,19.80
2023-12-05T22:35:14.922Z,18.40
2023-12-05T22:40:19.179Z,17.70
2023-12-05T22:45:22.033Z,18.53
2023-12-05T22:50:24.869Z,19.03
2023-12-05T22:55:29.614Z,19.10
2023-12-05T23:00:32.315Z,16.87
2023-12-05T23:05:35.252Z,20.20
2023-12-05T23:10:39.820Z,19.47
2023-12-05T23:15:42.456Z,20.20
2023-12-05T23:20:46.163Z,20.20
2023-12-05T23:25:50.311Z,20.40
2023-12-05T23:30:53.066Z,18.30
2023-12-05T23:35:57.817Z,18.40
2023-12-05T23:41:01.855Z,20.40
2023-12-05T23:46:04.793Z,19.47
2023-12-05T23:51:07.441Z,21.90
2023-12-05T23:56:12.028Z,24.23
